F/V Oceanie — FVBW — position and weather

sailwx.info

Track history (hours):
 
Tides and Currents Weather Stations Pressure Air Temp Water Temp Dewpoint Dewpoint Depression Visibility Wind Speed Wind Dir Waves Ship Positions

F/V Oceanie

Last reported at 2016-Sep-28 03:33 UTC. Time now 2016-Sep-28 08:38 UTC.
Position N 47°06' W 003°36'.

Length 16 m.

Type: Fishing. MMSI: 228370000.

Date/timePositionNaut miles runAvg speedWind from/ knotsBaromVisibWave heightAir tempDewpointWater temp
2016-Sep-28 03:33N 47°06' W 003°36'4 3.9
2016-Sep-28 02:33N 47°07' W 003°31'4 3.6
2016-Sep-28 01:33N 47°08' W 003°25'15 2.4
2016-Sep-27 19:26N 46°58' W 003°41'15 2.9
2016-Sep-27 14:16N 47°12' W 003°49'2 2.1
2016-Sep-27 13:32N 47°11' W 003°47'37 2.9
2016-Sep-27 00:33N 47°44' W 003°22'  
2016-Sep-23 19:33N 47°17' W 003°44'5 2.6
2016-Sep-23 17:33N 47°12' W 003°47'3 2.6
2016-Sep-23 16:27N 47°14' W 003°50'6 4.2
2016-Sep-23 15:05N 47°08' W 003°52'3 1.8
2016-Sep-23 13:13N 47°11' W 003°54'1 0.2
2016-Sep-23 06:34N 47°12' W 003°54'8 3.9
2016-Sep-23 04:33N 47°16' W 003°44'7 7.0
2016-Sep-23 03:33N 47°22' W 003°37'9 9.1
2016-Sep-23 02:34N 47°29' W 003°30'9 9.4
2016-Sep-23 01:33N 47°38' W 003°23'6 6.2
2016-Sep-23 00:33N 47°44' W 003°22'0 0.1
2016-Sep-22 23:33N 47°44' W 003°22'25 8.0
2016-Sep-22 20:30N 47°27' W 003°48'3 0.2
2016-Sep-22 04:33N 47°30' W 003°48'9 9.1
2016-Sep-22 03:33N 47°36' W 003°37'9 2.9
2016-Sep-22 00:33N 47°35' W 003°25'9 8.8
2016-Sep-21 23:34N 47°27' W 003°31'8 7.9
2016-Sep-21 22:33N 47°20' W 003°35'11 3.5
2016-Sep-21 19:30N 47°17' W 003°50'10 3.4
2016-Sep-21 16:28N 47°27' W 003°54'4 0.6
2016-Sep-21 09:31N 47°31' W 003°55'4 4.0
2016-Sep-21 08:31N 47°28' W 003°50'4 1.5
2016-Sep-21 05:33N 47°32' W 003°48'8 4.1
2016-Sep-21 03:33N 47°37' W 003°38'8 7.8
2016-Sep-21 02:33N 47°40' W 003°27'20 2.2
2016-Sep-20 17:34N 47°28' W 003°50'4 1.3
2016-Sep-20 14:29N 47°31' W 003°55'4 4.2
2016-Sep-20 13:33N 47°32' W 004°00'2 0.7
2016-Sep-20 10:24N 47°31' W 003°57'1 0.6
2016-Sep-20 08:34N 47°32' W 003°55'2 2.0
2016-Sep-20 07:33N 47°30' W 003°53'2 2.0
2016-Sep-20 06:33N 47°32' W 003°54'23 5.7
2016-Sep-20 02:34N 47°41' W 003°23'14 4.5
2016-Sep-19 23:33N 47°29' W 003°32'15 3.0
2016-Sep-19 18:33N 47°27' W 003°54'8 1.3
2016-Sep-19 12:28N 47°33' W 004°02'1 0.2
2016-Sep-19 09:24N 47°33' W 004°01'1 0.6
2016-Sep-19 07:33N 47°33' W 003°59'4 4.2
2016-Sep-19 06:33N 47°32' W 003°53'19 6.3
2016-Sep-19 03:33N 47°40' W 003°28'  
Track history (hours):
 
Tides and Currents Weather Stations Pressure Air Temp Water Temp Dewpoint Dewpoint Depression Visibility Wind Speed Wind Dir Waves Ship Positions

F/V Oceanie

Last reported at 2016-Sep-28 03:33 UTC. Time now 2016-Sep-28 08:38 UTC.
Position N 47°06' W 003°36'.

Length 16 m.

Type: Fishing. MMSI: 228370000.

Date/timePositionNaut miles runAvg speedWind from/ knotsBaromVisibWave heightAir tempDewpointWater temp
2016-Sep-28 03:33N 47°06' W 003°36'4 3.9
2016-Sep-28 02:33N 47°07' W 003°31'4 3.6
2016-Sep-28 01:33N 47°08' W 003°25'15 2.4
2016-Sep-27 19:26N 46°58' W 003°41'15 2.9
2016-Sep-27 14:16N 47°12' W 003°49'2 2.1
2016-Sep-27 13:32N 47°11' W 003°47'37 2.9
2016-Sep-27 00:33N 47°44' W 003°22'  
2016-Sep-23 19:33N 47°17' W 003°44'5 2.6
2016-Sep-23 17:33N 47°12' W 003°47'3 2.6
2016-Sep-23 16:27N 47°14' W 003°50'6 4.2
2016-Sep-23 15:05N 47°08' W 003°52'3 1.8
2016-Sep-23 13:13N 47°11' W 003°54'1 0.2
2016-Sep-23 06:34N 47°12' W 003°54'8 3.9
2016-Sep-23 04:33N 47°16' W 003°44'7 7.0
2016-Sep-23 03:33N 47°22' W 003°37'9 9.1
2016-Sep-23 02:34N 47°29' W 003°30'9 9.4
2016-Sep-23 01:33N 47°38' W 003°23'6 6.2
2016-Sep-23 00:33N 47°44' W 003°22'0 0.1
2016-Sep-22 23:33N 47°44' W 003°22'25 8.0
2016-Sep-22 20:30N 47°27' W 003°48'3 0.2
2016-Sep-22 04:33N 47°30' W 003°48'9 9.1
2016-Sep-22 03:33N 47°36' W 003°37'9 2.9
2016-Sep-22 00:33N 47°35' W 003°25'9 8.8
2016-Sep-21 23:34N 47°27' W 003°31'8 7.9
2016-Sep-21 22:33N 47°20' W 003°35'11 3.5
2016-Sep-21 19:30N 47°17' W 003°50'10 3.4
2016-Sep-21 16:28N 47°27' W 003°54'4 0.6
2016-Sep-21 09:31N 47°31' W 003°55'4 4.0
2016-Sep-21 08:31N 47°28' W 003°50'4 1.5
2016-Sep-21 05:33N 47°32' W 003°48'8 4.1
2016-Sep-21 03:33N 47°37' W 003°38'8 7.8
2016-Sep-21 02:33N 47°40' W 003°27'20 2.2
2016-Sep-20 17:34N 47°28' W 003°50'4 1.3
2016-Sep-20 14:29N 47°31' W 003°55'4 4.2
2016-Sep-20 13:33N 47°32' W 004°00'2 0.7
2016-Sep-20 10:24N 47°31' W 003°57'1 0.6
2016-Sep-20 08:34N 47°32' W 003°55'2 2.0
2016-Sep-20 07:33N 47°30' W 003°53'2 2.0
2016-Sep-20 06:33N 47°32' W 003°54'23 5.7
2016-Sep-20 02:34N 47°41' W 003°23'14 4.5
2016-Sep-19 23:33N 47°29' W 003°32'15 3.0
2016-Sep-19 18:33N 47°27' W 003°54'8 1.3
2016-Sep-19 12:28N 47°33' W 004°02'1 0.2
2016-Sep-19 09:24N 47°33' W 004°01'1 0.6
2016-Sep-19 07:33N 47°33' W 003°59'4 4.2
2016-Sep-19 06:33N 47°32' W 003°53'19 6.3
2016-Sep-19 03:33N 47°40' W 003°28'  

Dump ship's entire track history